createdAt,value
2023-04-11T00:01:02.026Z,23.53
2023-04-11T00:03:29.172Z,22.57
2023-04-11T00:05:56.453Z,20.77
2023-04-11T00:08:23.421Z,27.73
2023-04-11T00:10:50.512Z,20.13
2023-04-11T00:13:19.866Z,28.30
2023-04-11T00:15:47.757Z,27.93
2023-04-11T00:18:15.025Z,29.92
2023-04-11T00:20:42.025Z,17.77
2023-04-11T00:23:09.067Z,23.63
2023-04-11T00:25:37.360Z,24.07
2023-04-11T00:28:04.699Z,23.77
2023-04-11T00:30:31.720Z,22.27
2023-04-11T00:32:58.755Z,27.17
2023-04-11T00:35:25.965Z,27.23
2023-04-11T00:37:56.163Z,24.53
2023-04-11T00:40:23.335Z,28.00
2023-04-11T00:42:50.500Z,24.97
2023-04-11T00:45:17.516Z,22.57
2023-04-11T00:47:44.723Z,25.23
2023-04-11T00:50:14.167Z,25.77
2023-04-11T00:52:42.814Z,24.43
2023-04-11T00:55:10.818Z,23.63
2023-04-11T00:57:38.524Z,29.53
2023-04-11T01:00:10.221Z,31.07
2023-04-11T01:02:45.174Z,28.40
2023-04-11T01:05:14.874Z,28.63
2023-04-11T01:07:46.984Z,29.17
2023-04-11T01:10:15.800Z,29.20
2023-04-11T01:12:46.055Z,25.20
2023-04-11T01:15:13.069Z,32.13
2023-04-11T01:17:41.829Z,30.77
2023-04-11T01:20:10.309Z,28.43
2023-04-11T01:22:38.671Z,33.30
2023-04-11T01:25:06.344Z,28.00
2023-04-11T01:27:34.213Z,30.33
2023-04-11T01:30:01.973Z,31.90
2023-04-11T01:32:29.000Z,28.40
2023-04-11T01:34:58.759Z,27.73
2023-04-11T01:37:25.902Z,26.90
2023-04-11T01:39:53.201Z,30.07
2023-04-11T01:42:21.942Z,34.90
2023-04-11T01:44:53.560Z,26.60
2023-04-11T01:47:20.635Z,25.20
2023-04-11T01:49:47.638Z,28.23
2023-04-11T01:52:14.591Z,28.43
2023-04-11T01:54:41.557Z,30.83
2023-04-11T01:57:08.568Z,29.50
2023-04-11T01:59:35.741Z,28.13
2023-04-11T02:02:02.952Z,24.40
2023-04-11T02:04:30.342Z,29.10
2023-04-11T02:06:57.366Z,28.63
2023-04-11T02:09:24.459Z,26.40
2023-04-11T02:11:51.457Z,25.50
2023-04-11T02:14:20.447Z,30.93
2023-04-11T02:16:56.146Z,29.97
2023-04-11T02:19:26.259Z,24.03
2023-04-11T02:21:53.444Z,23.03
2023-04-11T02:24:20.474Z,20.60
2023-04-11T02:26:47.510Z,19.87
2023-04-11T02:29:14.549Z,25.67
2023-04-11T02:31:41.558Z,21.70
2023-04-11T02:34:09.048Z,22.87
2023-04-11T02:36:36.601Z,21.07
2023-04-11T02:39:03.680Z,18.10
2023-04-11T02:41:30.854Z,21.43
2023-04-11T02:43:57.840Z,18.93
2023-04-11T02:46:25.049Z,17.17
2023-04-11T02:48:52.065Z,17.70
2023-04-11T02:51:19.024Z,18.43
2023-04-11T02:53:46.170Z,19.23
2023-04-11T02:56:18.754Z,18.07
2023-04-11T02:58:47.043Z,19.67
2023-04-11T03:01:17.260Z,21.27
2023-04-11T03:03:45.207Z,22.93
2023-04-11T03:06:12.328Z,19.17
2023-04-11T03:08:39.322Z,23.97
2023-04-11T03:11:06.676Z,18.97
2023-04-11T03:13:33.864Z,22.80
2023-04-11T03:16:00.937Z,23.93
2023-04-11T03:18:28.026Z,19.97
2023-04-11T03:20:56.145Z,20.67
2023-04-11T03:23:23.310Z,22.90
2023-04-11T03:25:50.995Z,27.20
2023-04-11T03:28:18.064Z,26.33
2023-04-11T03:30:46.547Z,18.53
2023-04-11T03:33:13.589Z,19.27
2023-04-11T03:35:40.667Z,18.93
2023-04-11T03:38:07.744Z,20.77
2023-04-11T03:40:35.050Z,20.70
2023-04-11T03:43:04.317Z,18.87
2023-04-11T03:45:31.809Z,18.30
2023-04-11T03:47:58.879Z,24.70
2023-04-11T03:50:26.089Z,20.60
2023-04-11T03:52:53.120Z,17.57
2023-04-11T03:55:20.518Z,18.73
2023-04-11T03:57:47.645Z,17.33
2023-04-11T04:00:14.914Z,22.00
2023-04-11T04:02:42.171Z,24.83
2023-04-11T04:05:09.589Z,19.47
2023-04-11T04:07:36.660Z,18.07
2023-04-11T04:10:04.985Z,17.83
2023-04-11T04:12:32.162Z,18.53
2023-04-11T04:14:59.231Z,21.63
2023-04-11T04:17:27.344Z,22.63
2023-04-11T04:19:54.361Z,17.23
2023-04-11T04:22:22.382Z,19.37
2023-04-11T04:24:49.397Z,20.10
2023-04-11T04:27:19.249Z,17.50
2023-04-11T04:29:48.418Z,16.73
2023-04-11T04:32:23.223Z,16.40
2023-04-11T04:34:55.299Z,17.48
2023-04-11T04:37:25.996Z,18.83
2023-04-11T04:40:02.237Z,14.25
2023-04-11T04:42:30.258Z,16.35
2023-04-11T04:44:57.602Z,16.42
2023-04-11T04:47:29.707Z,14.82
2023-04-11T04:49:57.554Z,14.02
2023-04-11T04:52:29.164Z,17.85
2023-04-11T04:54:58.099Z,18.58
2023-04-11T04:57:27.247Z,16.60
2023-04-11T04:59:56.127Z,16.50
2023-04-11T05:02:23.358Z,17.35
2023-04-11T05:04:50.549Z,15.82
2023-04-11T05:07:18.380Z,13.90
2023-04-11T05:09:45.444Z,16.85
2023-04-11T05:12:13.970Z,21.48
2023-04-11T05:14:41.161Z,14.57
2023-04-11T05:17:08.159Z,18.65
2023-04-11T05:19:35.466Z,17.80
2023-04-11T05:22:02.455Z,14.70
2023-04-11T05:24:29.485Z,18.38
2023-04-11T05:26:56.741Z,19.55
2023-04-11T05:29:23.791Z,16.60
2023-04-11T05:31:50.938Z,18.75
2023-04-11T05:34:17.922Z,15.02
2023-04-11T05:36:47.229Z,15.60
2023-04-11T05:39:14.251Z,15.02
2023-04-11T05:41:41.977Z,14.73
2023-04-11T05:44:09.011Z,13.85
2023-04-11T05:46:37.312Z,15.20
2023-04-11T05:49:04.427Z,16.40
2023-04-11T05:51:31.729Z,11.60
2023-04-11T05:53:58.995Z,16.38
2023-04-11T05:56:26.140Z,15.65
2023-04-11T05:58:53.090Z,15.68
2023-04-11T06:01:20.132Z,14.05
2023-04-11T06:03:48.083Z,14.35
2023-04-11T06:06:15.819Z,12.52
2023-04-11T06:08:43.088Z,15.75
2023-04-11T06:11:11.308Z,16.00
2023-04-11T06:13:38.359Z,16.17
2023-04-11T06:16:06.922Z,15.30
2023-04-11T06:18:34.100Z,11.98
2023-04-11T06:21:01.213Z,14.15
2023-04-11T06:23:28.257Z,17.27
2023-04-11T06:25:55.366Z,12.35
2023-04-11T06:28:22.381Z,9.27
2023-04-11T06:30:49.483Z,11.45
2023-04-11T06:33:16.533Z,10.70
2023-04-11T06:35:43.576Z,10.05
2023-04-11T06:38:10.654Z,9.55
2023-04-11T06:40:37.672Z,11.32
2023-04-11T06:43:04.741Z,13.68
2023-04-11T06:45:31.799Z,12.10
2023-04-11T06:47:58.846Z,10.90
2023-04-11T06:50:26.076Z,9.45
2023-04-11T06:52:53.046Z,11.80
2023-04-11T06:55:21.101Z,13.20
2023-04-11T06:57:48.044Z,12.85
2023-04-11T07:00:16.339Z,10.07
2023-04-11T07:02:44.798Z,12.02
2023-04-11T07:05:12.251Z,9.57
2023-04-11T07:07:39.768Z,8.82
2023-04-11T07:10:07.797Z,13.75
2023-04-11T07:12:34.811Z,12.25
2023-04-11T07:15:03.824Z,12.05
2023-04-11T07:17:31.610Z,15.57
2023-04-11T07:19:58.612Z,11.35
2023-04-11T07:22:25.807Z,9.57
2023-04-11T07:24:55.338Z,14.02
2023-04-11T07:27:23.470Z,8.90
2023-04-11T07:29:50.741Z,9.15
2023-04-11T07:32:17.938Z,9.00
2023-04-11T07:34:44.946Z,10.30
2023-04-11T07:37:12.567Z,10.20
2023-04-11T07:39:40.774Z,13.43
2023-04-11T07:42:08.133Z,9.27
2023-04-11T07:44:35.358Z,18.27
2023-04-11T07:47:02.359Z,9.85
2023-04-11T07:49:29.646Z,10.93
2023-04-11T07:51:56.640Z,9.73
2023-04-11T07:54:25.321Z,11.48
2023-04-11T07:56:52.431Z,10.02
2023-04-11T07:59:19.429Z,10.05
2023-04-11T08:01:46.581Z,13.98
2023-04-11T08:04:14.309Z,11.68
2023-04-11T08:06:41.552Z,8.20
2023-04-11T08:09:08.547Z,8.63
2023-04-11T08:11:35.641Z,10.00
2023-04-11T08:14:03.270Z,13.10
2023-04-11T08:16:30.311Z,6.75
2023-04-11T08:18:59.253Z,10.07
2023-04-11T08:21:26.755Z,9.98
2023-04-11T08:23:53.859Z,8.80
2023-04-11T08:26:21.271Z,8.05
2023-04-11T08:28:48.360Z,13.32
2023-04-11T08:31:15.586Z,7.82
2023-04-11T08:33:42.787Z,7.63
2023-04-11T08:36:11.123Z,7.85
2023-04-11T08:38:39.645Z,10.38
2023-04-11T08:41:06.991Z,6.50
2023-04-11T08:43:38.993Z,7.20
2023-04-11T08:46:12.065Z,10.73
2023-04-11T08:48:39.472Z,7.78
2023-04-11T08:51:06.941Z,6.65
2023-04-11T08:53:37.984Z,10.65
2023-04-11T08:56:05.224Z,5.47
2023-04-11T08:58:32.349Z,6.32
2023-04-11T09:01:29.939Z,4.57
2023-04-11T09:03:59.396Z,4.53
2023-04-11T09:06:32.736Z,7.10
2023-04-11T09:09:02.416Z,4.55
2023-04-11T09:11:29.493Z,4.93
2023-04-11T09:14:10.754Z,8.32
2023-04-11T09:16:53.029Z,5.30
2023-04-11T09:19:29.270Z,5.30
2023-04-11T09:22:04.165Z,5.10
2023-04-11T09:24:33.386Z,3.97
2023-04-11T09:27:16.950Z,7.53
2023-04-11T09:29:48.944Z,7.10
2023-04-11T09:32:34.164Z,4.32
2023-04-11T09:35:12.775Z,4.28
2023-04-11T09:37:56.030Z,7.28
2023-04-11T09:40:26.347Z,3.88
2023-04-11T09:43:04.264Z,7.45
2023-04-11T09:45:38.247Z,6.60
2023-04-11T09:48:09.018Z,2.88
2023-04-11T09:50:38.575Z,2.88
2023-04-11T09:53:06.967Z,2.30
2023-04-11T09:55:33.954Z,2.10
2023-04-11T09:58:01.409Z,3.00
2023-04-11T10:00:30.281Z,3.25
2023-04-11T10:02:57.528Z,3.40
2023-04-11T10:05:30.456Z,15.68
2023-04-11T10:08:14.640Z,4.25
2023-04-11T10:10:44.126Z,3.70
2023-04-11T10:13:41.217Z,3.10
2023-04-11T10:16:16.543Z,2.88
2023-04-11T10:18:55.214Z,4.80
2023-04-11T10:21:42.858Z,6.25
2023-04-11T10:24:18.063Z,3.90
2023-04-11T10:26:53.644Z,13.55
2023-04-11T10:29:40.539Z,7.50
2023-04-11T10:32:16.691Z,6.65
2023-04-11T10:34:52.470Z,6.97
2023-04-11T10:37:40.040Z,4.90
2023-04-11T10:40:11.447Z,8.45
2023-04-11T10:42:46.828Z,4.90
2023-04-11T10:45:30.460Z,7.18
2023-04-11T10:47:57.469Z,5.63
2023-04-11T10:50:27.235Z,5.60
2023-04-11T10:52:59.409Z,7.63
2023-04-11T10:55:29.435Z,6.05
2023-04-11T10:58:16.811Z,4.38
2023-04-11T11:00:49.829Z,7.35
2023-04-11T11:03:34.152Z,4.55
2023-04-11T11:06:09.437Z,7.78
2023-04-11T11:08:43.449Z,4.38
2023-04-11T11:11:11.746Z,6.10
2023-04-11T11:13:56.219Z,5.18
2023-04-11T11:16:26.513Z,6.45
2023-04-11T11:18:56.346Z,4.32
2023-04-11T11:21:28.163Z,5.80
2023-04-11T11:24:02.806Z,3.13
2023-04-11T11:26:36.749Z,5.47
2023-04-11T11:29:05.796Z,9.75
2023-04-11T11:31:42.659Z,8.63
2023-04-11T11:36:46.669Z,4.03
2023-04-11T11:39:14.302Z,5.45
2023-04-11T11:41:41.770Z,4.13
2023-04-11T11:44:23.949Z,5.05
2023-04-11T11:47:17.990Z,3.90
2023-04-11T11:49:52.958Z,5.30
2023-04-11T11:52:40.571Z,7.55
2023-04-11T11:55:19.521Z,7.28
2023-04-11T11:57:47.885Z,7.07
2023-04-11T12:00:23.477Z,5.38
2023-04-11T12:02:54.273Z,6.30
2023-04-11T12:05:24.071Z,5.10
2023-04-11T12:07:54.981Z,5.38
2023-04-11T12:10:22.018Z,5.38
2023-04-11T12:12:53.334Z,5.60
2023-04-11T12:15:24.160Z,5.45
2023-04-11T12:17:53.798Z,6.13
2023-04-11T12:20:26.416Z,4.70
2023-04-11T12:22:55.056Z,5.35
2023-04-11T12:25:23.088Z,6.65
2023-04-11T12:27:50.248Z,7.95
2023-04-11T12:30:17.347Z,4.90
2023-04-11T12:32:45.832Z,7.78
2023-04-11T12:35:13.662Z,5.88
2023-04-11T12:37:41.263Z,6.88
2023-04-11T12:40:11.270Z,6.15
2023-04-11T12:42:53.289Z,5.82
2023-04-11T12:45:23.149Z,6.55
2023-04-11T12:47:50.281Z,5.78
2023-04-11T12:50:17.429Z,5.38
2023-04-11T12:52:44.772Z,7.82
2023-04-11T12:55:13.607Z,7.20
2023-04-11T12:57:41.583Z,7.90
2023-04-11T13:00:11.588Z,5.47
2023-04-11T13:02:44.019Z,6.93
2023-04-11T13:05:16.498Z,5.75
2023-04-11T13:07:45.056Z,6.28
2023-04-11T13:10:14.116Z,6.05
2023-04-11T13:12:44.497Z,7.60
2023-04-11T13:15:13.872Z,6.63
2023-04-11T13:17:41.069Z,7.95
2023-04-11T13:20:10.680Z,6.93
2023-04-11T13:22:44.774Z,7.35
2023-04-11T13:25:12.493Z,6.35
2023-04-11T13:27:41.607Z,7.72
2023-04-11T13:30:10.650Z,6.57
2023-04-11T13:32:37.833Z,6.15
2023-04-11T13:35:05.905Z,10.27
2023-04-11T13:37:33.177Z,7.53
2023-04-11T13:40:00.581Z,8.48
2023-04-11T13:42:27.570Z,6.93
2023-04-11T13:44:54.665Z,6.57
2023-04-11T13:47:21.742Z,7.75
2023-04-11T13:49:48.750Z,7.25
2023-04-11T13:52:15.763Z,7.70
2023-04-11T13:54:42.815Z,8.18
2023-04-11T13:57:09.875Z,6.60
2023-04-11T13:59:36.940Z,6.68
2023-04-11T14:02:04.171Z,7.47
2023-04-11T14:04:31.524Z,6.82
2023-04-11T14:06:58.578Z,6.80
2023-04-11T14:09:25.616Z,5.03
2023-04-11T14:11:52.721Z,7.68
2023-04-11T14:14:19.842Z,9.65
2023-04-11T14:16:46.988Z,5.20
2023-04-11T14:19:14.878Z,9.00
2023-04-11T14:21:42.089Z,6.22
2023-04-11T14:24:09.706Z,11.32
2023-04-11T14:26:37.241Z,9.13
2023-04-11T14:29:04.795Z,7.90
2023-04-11T14:31:32.153Z,7.72
2023-04-11T14:33:59.475Z,6.15
2023-04-11T14:36:27.998Z,7.90
2023-04-11T14:38:55.358Z,7.25
2023-04-11T14:41:22.489Z,9.80
2023-04-11T14:43:49.535Z,6.57
2023-04-11T14:46:16.727Z,7.00
2023-04-11T14:48:43.808Z,7.50
2023-04-11T14:51:10.803Z,6.55
2023-04-11T14:53:37.998Z,6.78
2023-04-11T14:56:06.589Z,6.05
2023-04-11T14:58:34.172Z,9.70
2023-04-11T15:01:01.400Z,6.28
2023-04-11T15:03:28.638Z,8.10
2023-04-11T15:05:56.010Z,7.10
2023-04-11T15:08:23.050Z,7.65
2023-04-11T15:10:54.121Z,5.38
2023-04-11T15:13:22.974Z,6.63
2023-04-11T15:15:50.103Z,7.32
2023-04-11T15:18:26.938Z,6.68
2023-04-11T15:20:58.823Z,7.60
2023-04-11T15:23:26.619Z,6.82
2023-04-11T15:25:58.512Z,7.30
2023-04-11T15:28:27.247Z,6.97
2023-04-11T15:30:55.487Z,8.20
2023-04-11T15:33:23.987Z,7.13
2023-04-11T15:35:53.708Z,4.65
2023-04-11T15:38:21.884Z,7.53
2023-04-11T15:40:54.490Z,4.65
2023-04-11T15:43:23.289Z,5.72
2023-04-11T15:45:52.309Z,6.30
2023-04-11T15:48:19.434Z,6.00
2023-04-11T15:50:46.605Z,9.07
2023-04-11T15:53:13.914Z,5.88
2023-04-11T15:55:42.965Z,5.45
2023-04-11T15:58:10.411Z,5.50
2023-04-11T16:00:39.041Z,5.55
2023-04-11T16:03:08.501Z,5.05
2023-04-11T16:05:38.318Z,5.53
2023-04-11T16:08:06.532Z,5.50
2023-04-11T16:10:33.984Z,5.10
2023-04-11T16:13:02.609Z,6.22
2023-04-11T16:15:29.681Z,5.07
2023-04-11T16:17:56.742Z,8.90
2023-04-11T16:20:23.770Z,8.05
2023-04-11T16:22:50.771Z,9.77
2023-04-11T16:25:21.020Z,8.60
2023-04-11T16:27:49.978Z,8.52
2023-04-11T16:30:17.335Z,7.38
2023-04-11T16:32:44.553Z,7.57
2023-04-11T16:35:12.023Z,11.32
2023-04-11T16:37:39.006Z,6.80
2023-04-11T16:40:12.073Z,6.88
2023-04-11T16:42:39.839Z,7.40
2023-04-11T16:45:08.945Z,6.95
2023-04-11T16:47:36.304Z,13.82
2023-04-11T16:50:05.353Z,9.65
2023-04-11T16:52:32.783Z,7.32
2023-04-11T16:54:59.762Z,7.63
2023-04-11T16:57:27.567Z,9.68
2023-04-11T16:59:54.706Z,6.82
2023-04-11T17:02:21.951Z,7.47
2023-04-11T17:04:49.063Z,9.27
2023-04-11T17:07:16.319Z,8.38
2023-04-11T17:09:43.390Z,7.43
2023-04-11T17:12:10.582Z,8.15
2023-04-11T17:14:37.581Z,8.00
2023-04-11T17:17:04.601Z,8.45
2023-04-11T17:19:31.718Z,8.93
2023-04-11T17:21:58.789Z,6.88
2023-04-11T17:24:25.942Z,9.30
2023-04-11T17:26:53.365Z,8.27
2023-04-11T17:29:20.357Z,9.15
2023-04-11T17:31:47.957Z,6.65
2023-04-11T17:34:15.046Z,8.68
2023-04-11T17:36:43.039Z,6.20
2023-04-11T17:39:17.089Z,8.65
2023-04-11T17:41:45.690Z,10.25
2023-04-11T17:44:13.655Z,6.82
2023-04-11T17:46:41.226Z,13.70
2023-04-11T17:49:08.321Z,8.23
2023-04-11T17:51:38.928Z,6.40
2023-04-11T17:55:23.254Z,6.97
2023-04-11T17:57:51.291Z,9.35
2023-04-11T18:00:24.129Z,6.78
2023-04-11T18:02:54.921Z,10.00
2023-04-11T18:05:25.858Z,9.38
2023-04-11T18:07:58.126Z,8.57
2023-04-11T18:10:27.427Z,9.52
2023-04-11T18:12:56.565Z,7.50
2023-04-11T18:15:24.841Z,9.07
2023-04-11T18:17:52.837Z,12.63
2023-04-11T18:20:20.155Z,12.43
2023-04-11T18:22:51.756Z,14.32
2023-04-11T18:25:18.780Z,11.18
2023-04-11T18:27:47.101Z,9.10
2023-04-11T18:30:15.976Z,12.32
2023-04-11T18:32:49.390Z,10.65
2023-04-11T18:35:17.436Z,11.23
2023-04-11T18:37:44.741Z,9.82
2023-04-11T18:40:14.177Z,11.20
2023-04-11T18:42:49.371Z,17.73
2023-04-11T18:45:20.501Z,15.07
2023-04-11T18:47:47.853Z,14.95
2023-04-11T18:50:15.851Z,15.57
2023-04-11T18:52:44.923Z,11.57
2023-04-11T18:55:12.492Z,73.78
2023-04-11T18:57:39.877Z,24.45
2023-04-11T19:00:18.077Z,16.75
2023-04-11T19:02:46.883Z,14.65
2023-04-11T19:05:14.709Z,16.45
2023-04-11T19:07:43.515Z,11.77
2023-04-11T19:10:13.303Z,13.75
2023-04-11T19:12:41.119Z,14.82
2023-04-11T19:15:09.385Z,17.77
2023-04-11T19:17:38.489Z,15.35
2023-04-11T19:20:13.416Z,15.05
2023-04-11T19:22:41.032Z,11.15
2023-04-11T19:25:12.416Z,15.18
2023-04-11T19:27:41.988Z,14.90
2023-04-11T19:30:11.549Z,14.77
2023-04-11T19:32:41.071Z,12.80
2023-04-11T19:35:10.884Z,14.23
2023-04-11T19:37:38.084Z,15.07
2023-04-11T19:40:07.400Z,13.13
2023-04-11T19:42:37.182Z,16.35
2023-04-11T19:45:05.192Z,14.50
2023-04-11T19:47:32.888Z,13.52
2023-04-11T19:50:01.060Z,16.40
2023-04-11T19:52:28.905Z,22.85
2023-04-11T19:54:56.595Z,16.48
2023-04-11T19:57:26.534Z,19.02
2023-04-11T19:59:53.626Z,17.30
2023-04-11T20:02:21.189Z,16.67
2023-04-11T20:04:49.457Z,15.40
2023-04-11T20:07:16.740Z,22.98
2023-04-11T20:09:43.839Z,18.42
2023-04-11T20:12:11.195Z,16.45
2023-04-11T20:14:38.347Z,14.48
2023-04-11T20:17:06.638Z,19.25
2023-04-11T20:19:37.709Z,19.58
2023-04-11T20:22:05.038Z,22.48
2023-04-11T20:24:32.097Z,17.70
2023-04-11T20:26:59.150Z,16.95
2023-04-11T20:29:32.905Z,24.05
2023-04-11T20:32:00.234Z,18.27
2023-04-11T20:34:27.290Z,24.65
2023-04-11T20:36:54.310Z,23.20
2023-04-11T20:39:22.053Z,18.52
2023-04-11T20:41:49.998Z,16.55
2023-04-11T20:44:23.607Z,21.67
2023-04-11T20:46:51.357Z,18.60
2023-04-11T20:49:18.394Z,21.27
2023-04-11T20:51:49.772Z,23.60
2023-04-11T20:54:16.760Z,18.58
2023-04-11T20:56:44.153Z,17.73
2023-04-11T20:59:12.452Z,17.58
2023-04-11T21:01:40.593Z,19.42
2023-04-11T21:04:09.665Z,22.33
2023-04-11T21:06:37.054Z,21.95
2023-04-11T21:09:05.363Z,19.85
2023-04-11T21:11:33.244Z,19.25
2023-04-11T21:14:00.509Z,22.10
2023-04-11T21:16:27.533Z,28.70
2023-04-11T21:18:54.565Z,21.10
2023-04-11T21:21:21.545Z,19.75
2023-04-11T21:23:48.662Z,19.77
2023-04-11T21:26:15.707Z,25.38
2023-04-11T21:28:42.663Z,20.90
2023-04-11T21:31:09.790Z,21.50
2023-04-11T21:33:36.796Z,25.45
2023-04-11T21:36:04.014Z,25.00
2023-04-11T21:38:31.112Z,26.20
2023-04-11T21:40:58.156Z,24.05
2023-04-11T21:43:25.335Z,24.35
2023-04-11T21:45:52.329Z,23.73
2023-04-11T21:48:19.563Z,24.70
2023-04-11T21:50:46.626Z,22.65
2023-04-11T21:53:14.140Z,20.27
2023-04-11T21:55:47.488Z,21.10
2023-04-11T21:58:27.939Z,22.27
2023-04-11T22:00:56.488Z,24.70
2023-04-11T22:03:24.186Z,17.95
2023-04-11T22:05:52.431Z,17.88
2023-04-11T22:08:22.356Z,22.15
2023-04-11T22:10:50.879Z,17.80
2023-04-11T22:13:19.432Z,15.07
2023-04-11T22:15:48.777Z,39.53
2023-04-11T22:18:15.934Z,19.05
2023-04-11T22:20:44.230Z,16.15
2023-04-11T22:23:13.078Z,18.58
2023-04-11T22:25:44.284Z,18.08
2023-04-11T22:28:18.413Z,20.70
2023-04-11T22:30:46.642Z,17.55
2023-04-11T22:33:14.032Z,22.20
2023-04-11T22:35:44.807Z,23.85
2023-04-11T22:38:12.142Z,22.67
2023-04-11T22:40:40.202Z,17.75
2023-04-11T22:43:07.387Z,17.35
2023-04-11T22:45:36.003Z,20.92
2023-04-11T22:48:04.636Z,18.15
2023-04-11T22:50:32.832Z,24.60
2023-04-11T22:53:02.554Z,19.48
2023-04-11T22:55:34.387Z,21.92
2023-04-11T22:58:02.867Z,21.00
2023-04-11T23:00:30.425Z,18.42
2023-04-11T23:02:59.793Z,17.40
2023-04-11T23:05:27.055Z,19.50
2023-04-11T23:07:54.193Z,15.18
2023-04-11T23:10:21.168Z,17.17
2023-04-11T23:12:49.424Z,18.98
2023-04-11T23:15:17.462Z,20.70
2023-04-11T23:17:44.980Z,18.10
2023-04-11T23:20:13.182Z,19.50
2023-04-11T23:22:42.480Z,19.40
2023-04-11T23:25:11.658Z,20.67
2023-04-11T23:27:39.626Z,25.00
2023-04-11T23:30:07.786Z,22.60
2023-04-11T23:32:35.106Z,21.45
2023-04-11T23:35:03.062Z,18.83
2023-04-11T23:37:32.015Z,20.08
2023-04-11T23:39:59.679Z,20.03
2023-04-11T23:42:26.827Z,18.37
2023-04-11T23:44:53.883Z,18.87
2023-04-11T23:47:20.928Z,19.87
2023-04-11T23:49:47.893Z,20.23
2023-04-11T23:52:14.956Z,17.97
2023-04-11T23:54:41.913Z,20.48
2023-04-11T23:57:08.908Z,17.75
2023-04-11T23:59:36.400Z,17.90
